Terminal Aerodrome Forecast
Issued by NWS

Home | Current Version | Previous Version | Text Only | Print | Product List | Glossary On
Versions: 1 2 3 4 5 6 7 8 9 10 11 12 13 14 15
000
FTUS46 KMTR 310900 AAA
TAFOAK
TAF AMD
KOAK 310906Z 3109/0112 03003KT P6SM MIFG FEW005
     FM311500 VRB03KT 6SM BR FEW009
     FM311800 29006KT P6SM SKC
     FM010300 VRB03KT P6SM SKC=

USA.gov is the U.S. government's official web portal to all federal, state and local government web resources and services.